Terminal Aerodrome Forecast
Issued by NWS

Home | Current Version | Previous Version | Text Only | Print | Product List | Glossary On
Versions: 1 2 3 4 5 6 7 8 9 10 11 12 13 14 15 16 17 18
000
FTUS46 KSGX 190520
TAFCRQ
TAF
KCRQ 190520Z 1906/2006 VRB02KT P6SM OVC011
     FM191600 VRB04KT P6SM SCT012
     FM192100 26008KT P6SM FEW015
     FM200000 VRB04KT P6SM BKN015=

USA.gov is the U.S. government's official web portal to all federal, state and local government web resources and services.